Airfield :
LOGIN :

Register | Disclaimer

   EN    FR    IT 

 










Legend :    VFR   Marginal VFR   IFR   Intensive IFR   Very Intensive IFR
Visi :
Ceiling :
>= 8 km
>= 3000ft
5 to 8 km
1000 to 3000 ft
1500m to 5 km
500 to 1000 ft
800 to 1500m
200 to 500 ft
< 800m
< 200 ft
Symbols :   Thunderstorms  Fog  Heavy snow  Heavy precipitations  Wind > 20 kt
SIGMETs :     Misc.  Thunderstorms  Icing  Turbulence  Mountain Waves  Volcanic Ashes






- Airport Elevation : 209 ft
- IATA code : CLY


LFKC - Calvi

CURRENT METAR :
  • 181930Z AUTO 18004KT 170V240 9999 FEW043 09/06 Q1016 NOSIG

EXPIRED METARs :
  • 181900Z AUTO VRB03KT 9999 FEW042 09/05 Q1016 NOSIG
  • 181830Z AUTO 00000KT CAVOK 11/05 Q1016 NOSIG
  • 181800Z AUTO 36004KT 320V040 CAVOK 12/05 Q1015 NOSIG
  • 181730Z AUTO 35007KT 310V030 CAVOK 13/06 Q1015 NOSIG
  • 181700Z AUTO 35008KT 310V020 CAVOK 14/06 Q1015 NOSIG

TAF TAF LFKC
Valid from the 18 at 15:00 until the 19 at 15:00 UTC


181400Z 1815/1915 01010KT CAVOK TX17/1912Z TN05/1904Z
TEMPO 1815/1816 FEW033CB BKN120
BECMG 1816/1818 35005KT
BECMG 1819/1821 18004KT
BECMG 1909/1911 35010KT
TEMPO 1912/1915 FEW033TCU
ATIS : +33 4 95 65 82 49



MET'MAP, your aeronautical weather chart ! - Copyright ORBIFLY December 2007 - Disclaimer

ORBIFLY MET'MAP TEAM :

Programming & Development : Alexandra Zaïnal
Concept & original design : Baudouin d'Aumeries
Assistance for programming : Marc-Olivier Méhu
Technical & hardware support : Manuel Goepfert

Contact : metmap@orbifly.com




SOURCES & CREDITS :

   NOAA